Time;durP1;ratioP1;P1;durP2;ratioP2;P2;SDS_P1;SDS_P2;PMS_P1;PMS_P2;Temp;Humidity;BMP_temperature;BMP_pressure;BME280_temperature;BME280_humidity;BME280_pressure;Samples;Min_cycle;Max_cycle;Signal;HPM_P1;HPM_P2
2023/03/10 00:02:23;;;;;;;60.70;3.43;;;;;;;;;;5051422;28;20506;-68
2023/03/10 00:04:50;;;;;;;62.43;3.73;;;;;;;;;;5051594;28;20444;-68
2023/03/10 00:07:17;;;;;;;59.77;3.40;;;;;;;;;;5051415;28;20507;-68
2023/03/10 00:09:46;;;;;;;58.90;3.33;;;;;;;;;;5051114;28;20456;-68
2023/03/10 00:12:13;;;;;;;61.50;4.13;;;;;;;;;;5051765;28;20881;-68
2023/03/10 00:14:40;;;;;;;58.60;3.17;;;;;;;;;;5051704;28;20452;-68
2023/03/10 00:17:08;;;;;;;59.40;3.67;;;;;;;;;;5051463;28;20844;-68
2023/03/10 00:19:35;;;;;;;60.17;3.60;;;;;;;;;;5051235;28;20454;-68
2023/03/10 00:22:02;;;;;;;58.20;3.33;;;;;;;;;;5051241;28;20460;-68
2023/03/10 00:24:29;;;;;;;59.70;3.30;;;;;;;;;;5051677;28;20444;-68
2023/03/10 00:26:58;;;;;;;60.57;3.90;;;;;;;;;;5051407;28;20860;-68
2023/03/10 00:29:25;;;;;;;60.30;3.60;;;;;;;;;;5051178;28;20449;-68
2023/03/10 00:31:52;;;;;;;64.50;3.87;;;;;;;;;;5051275;28;20964;-68
2023/03/10 00:34:19;;;;;;;61.20;3.57;;;;;;;;;;5051351;28;20452;-68
2023/03/10 00:36:46;;;;;;;58.60;3.50;;;;;;;;;;5051155;28;20464;-68
2023/03/10 00:39:13;;;;;;;60.40;3.70;;;;;;;;;;5050834;28;20452;-68
2023/03/10 00:41:40;;;;;;;59.90;3.00;;;;;;;;;;5051389;28;20471;-68
2023/03/10 00:44:09;;;;;;;58.80;4.23;;;;;;;;;;5051354;28;20455;-68
2023/03/10 00:46:37;;;;;;;59.57;3.20;;;;;;;;;;5050793;28;21012;-68
2023/03/10 00:49:04;;;;;;;61.00;3.60;;;;;;;;;;5050688;28;20447;-68
2023/03/10 00:51:32;;;;;;;60.30;3.40;;;;;;;;;;5051363;28;20534;-68
2023/03/10 00:54:00;;;;;;;60.47;3.23;;;;;;;;;;5051193;28;20459;-68
2023/03/10 00:56:27;;;;;;;58.80;3.07;;;;;;;;;;5050959;28;20464;-68
2023/03/10 00:58:55;;;;;;;58.90;3.17;;;;;;;;;;5051003;28;20452;-68
2023/03/10 01:01:25;;;;;;;58.67;3.00;;;;;;;;;;5051094;28;20444;-68
2023/03/10 01:03:52;;;;;;;59.03;3.60;;;;;;;;;;5050972;28;20960;-68
2023/03/10 01:06:20;;;;;;;59.60;3.27;;;;;;;;;;5053834;28;20483;-68
2023/03/10 01:08:47;;;;;;;59.07;2.67;;;;;;;;;;5054607;28;20470;-68
2023/03/10 01:11:14;;;;;;;58.47;3.07;;;;;;;;;;5054620;28;20447;-68
2023/03/10 01:13:42;;;;;;;58.23;3.00;;;;;;;;;;5054673;28;20448;-68
2023/03/10 01:16:09;;;;;;;61.20;3.20;;;;;;;;;;5054309;28;20460;-68
2023/03/10 01:18:38;;;;;;;60.27;3.23;;;;;;;;;;5054375;28;20837;-68
2023/03/10 01:21:05;;;;;;;58.40;3.00;;;;;;;;;;5054553;28;20474;-68
2023/03/10 01:23:32;;;;;;;59.97;3.33;;;;;;;;;;5054710;28;20455;-68
2023/03/10 01:25:59;;;;;;;59.87;3.50;;;;;;;;;;5054214;28;21022;-68
2023/03/10 01:28:26;;;;;;;58.80;3.13;;;;;;;;;;5054249;28;20444;-68
2023/03/10 01:30:53;;;;;;;58.70;3.10;;;;;;;;;;5053925;28;20452;-68
2023/03/10 01:33:21;;;;;;;59.20;3.30;;;;;;;;;;5054338;28;20452;-68
2023/03/10 01:35:49;;;;;;;59.23;3.20;;;;;;;;;;5054279;28;20476;-68
2023/03/10 01:38:16;;;;;;;59.90;3.30;;;;;;;;;;5054187;28;20444;-68
2023/03/10 01:40:48;;;;;;;59.67;3.50;;;;;;;;;;5053906;28;20536;-68
2023/03/10 01:43:26;;;;;;;59.67;3.80;;;;;;;;;;5053981;28;20448;-68
2023/03/10 01:46:12;;;;;;;60.30;3.70;;;;;;;;;;5053754;28;20540;-68
2023/03/10 01:48:39;;;;;;;59.00;3.10;;;;;;;;;;5053667;28;20820;-68
2023/03/10 01:51:07;;;;;;;58.60;3.10;;;;;;;;;;5053887;28;20459;-68
2023/03/10 01:53:34;;;;;;;58.90;3.13;;;;;;;;;;5053775;28;20450;-68
2023/03/10 01:56:03;;;;;;;58.30;3.33;;;;;;;;;;5053644;28;20472;-68
2023/03/10 01:58:34;;;;;;;58.67;2.97;;;;;;;;;;5053513;28;20456;-68
2023/03/10 02:01:01;;;;;;;57.90;2.73;;;;;;;;;;5053694;28;20510;-68
2023/03/10 02:03:30;;;;;;;59.10;3.07;;;;;;;;;;5053616;28;20455;-68
2023/03/10 02:05:59;;;;;;;58.97;3.50;;;;;;;;;;5053643;28;20843;-68
2023/03/10 02:08:30;;;;;;;60.80;3.13;;;;;;;;;;5053295;28;20835;-68
2023/03/10 02:10:57;;;;;;;59.00;3.17;;;;;;;;;;5053516;28;20967;-68
2023/03/10 02:13:24;;;;;;;59.70;3.20;;;;;;;;;;5053897;28;20444;-68
2023/03/10 02:15:51;;;;;;;58.37;3.00;;;;;;;;;;5053344;28;20468;-68
2023/03/10 02:18:20;;;;;;;59.23;3.00;;;;;;;;;;5052547;28;20828;-68
2023/03/10 02:20:50;;;;;;;58.30;3.20;;;;;;;;;;5052904;28;20457;-68
2023/03/10 02:23:22;;;;;;;58.80;2.93;;;;;;;;;;5053535;28;20444;-68
2023/03/10 02:25:54;;;;;;;58.67;3.00;;;;;;;;;;5053509;28;20476;-68
2023/03/10 02:28:23;;;;;;;58.40;2.90;;;;;;;;;;5053224;28;20495;-68
2023/03/10 02:30:51;;;;;;;59.57;3.43;;;;;;;;;;5053242;28;20963;-68
2023/03/10 02:33:20;;;;;;;57.97;3.03;;;;;;;;;;5052937;28;20984;-68
2023/03/10 02:35:47;;;;;;;60.30;2.90;;;;;;;;;;5053290;28;20476;-68
2023/03/10 02:38:14;;;;;;;59.73;3.00;;;;;;;;;;5053098;28;21046;-68
2023/03/10 02:40:44;;;;;;;58.40;2.80;;;;;;;;;;5052731;28;20452;-68
2023/03/10 02:43:17;;;;;;;58.30;3.00;;;;;;;;;;5052815;28;20460;-68
2023/03/10 02:45:46;;;;;;;58.53;2.80;;;;;;;;;;5052551;28;20878;-68
2023/03/10 02:48:15;;;;;;;61.50;3.00;;;;;;;;;;5052912;28;20488;-68
2023/03/10 02:50:43;;;;;;;58.90;3.00;;;;;;;;;;5051035;28;20999;-68
2023/03/10 02:53:12;;;;;;;57.47;2.70;;;;;;;;;;5052651;28;20828;-68
2023/03/10 02:55:39;;;;;;;58.40;2.70;;;;;;;;;;5052589;28;20476;-68
2023/03/10 02:58:06;;;;;;;57.47;2.63;;;;;;;;;;5052680;28;20449;-68
2023/03/10 03:00:37;;;;;;;57.77;2.67;;;;;;;;;;5052216;28;20455;-68
2023/03/10 03:03:05;;;;;;;57.70;2.60;;;;;;;;;;5052565;28;20456;-68
2023/03/10 03:05:32;;;;;;;58.83;3.03;;;;;;;;;;5052433;28;20444;-68
2023/03/10 03:07:59;;;;;;;57.93;2.70;;;;;;;;;;5052219;28;20487;-68
2023/03/10 03:10:27;;;;;;;58.63;2.87;;;;;;;;;;5052269;28;20441;-69
2023/03/10 03:12:55;;;;;;;57.60;2.40;;;;;;;;;;5052400;28;20474;-68
2023/03/10 03:15:22;;;;;;;57.67;2.50;;;;;;;;;;5052300;28;20968;-68
2023/03/10 03:17:49;;;;;;;57.90;2.57;;;;;;;;;;5052372;28;20436;-68
2023/03/10 03:20:20;;;;;;;57.17;2.50;;;;;;;;;;5051634;28;20448;-68
2023/03/10 03:22:47;;;;;;;60.90;2.40;;;;;;;;;;5052430;28;20448;-68
2023/03/10 03:25:16;;;;;;;59.10;2.97;;;;;;;;;;5052279;28;20459;-68
2023/03/10 03:27:43;;;;;;;58.70;2.70;;;;;;;;;;5052036;28;20578;-68
2023/03/10 03:30:13;;;;;;;58.67;2.93;;;;;;;;;;5051746;28;20448;-68
2023/03/10 03:32:40;;;;;;;58.33;2.63;;;;;;;;;;5051949;28;20441;-68
2023/03/10 03:35:10;;;;;;;58.07;2.77;;;;;;;;;;5052151;28;20821;-68
2023/03/10 03:37:39;;;;;;;58.27;2.57;;;;;;;;;;5052077;28;20486;-68
2023/03/10 03:40:12;;;;;;;57.87;2.80;;;;;;;;;;5051737;28;20717;-68
2023/03/10 03:42:39;;;;;;;57.90;2.60;;;;;;;;;;5052054;28;20452;-68
2023/03/10 03:45:06;;;;;;;59.50;2.60;;;;;;;;;;5051699;28;20455;-68
2023/03/10 03:47:34;;;;;;;57.23;2.40;;;;;;;;;;5051395;28;20546;-68
2023/03/10 03:50:01;;;;;;;59.00;2.60;;;;;;;;;;5051612;28;20829;-68
2023/03/10 03:52:28;;;;;;;58.27;2.60;;;;;;;;;;5051858;28;20452;-68
2023/03/10 03:54:56;;;;;;;57.33;2.30;;;;;;;;;;5051801;28;20821;-68
2023/03/10 03:57:23;;;;;;;57.90;2.40;;;;;;;;;;5051616;28;20464;-68
2023/03/10 03:59:51;;;;;;;57.60;2.53;;;;;;;;;;5051337;28;20936;-68
2023/03/10 04:02:18;;;;;;;59.60;3.00;;;;;;;;;;5051892;28;20459;-68
2023/03/10 04:04:45;;;;;;;57.60;2.30;;;;;;;;;;5051647;28;20944;-68
2023/03/10 04:07:12;;;;;;;57.90;2.60;;;;;;;;;;5051559;28;20483;-68
2023/03/10 04:09:39;;;;;;;58.90;2.37;;;;;;;;;;5051350;28;20444;-68
2023/03/10 04:12:08;;;;;;;57.90;2.43;;;;;;;;;;5051504;28;20449;-68
2023/03/10 04:14:35;;;;;;;57.73;2.23;;;;;;;;;;5051439;28;20452;-68
2023/03/10 04:17:02;;;;;;;57.93;2.60;;;;;;;;;;5051607;28;20693;-68
2023/03/10 04:19:29;;;;;;;57.23;2.43;;;;;;;;;;5051257;28;20468;-68
2023/03/10 04:21:56;;;;;;;57.70;2.60;;;;;;;;;;5051538;28;20455;-68
2023/03/10 04:24:24;;;;;;;59.97;2.57;;;;;;;;;;5051760;28;20499;-69
2023/03/10 04:26:51;;;;;;;57.70;2.23;;;;;;;;;;5051080;28;20475;-68
2023/03/10 04:29:23;;;;;;;57.73;2.50;;;;;;;;;;5051227;28;20459;-68
2023/03/10 04:31:50;;;;;;;57.27;2.20;;;;;;;;;;5051707;28;20510;-68
2023/03/10 04:34:17;;;;;;;59.07;2.63;;;;;;;;;;5051435;28;20444;-68
2023/03/10 04:36:45;;;;;;;59.70;2.83;;;;;;;;;;5051155;28;20483;-68
2023/03/10 04:39:12;;;;;;;58.53;2.80;;;;;;;;;;5050992;28;20446;-68
2023/03/10 04:41:39;;;;;;;57.23;2.27;;;;;;;;;;5054708;28;20452;-68
2023/03/10 04:44:06;;;;;;;57.63;2.57;;;;;;;;;;5055103;28;20444;-69
2023/03/10 04:46:35;;;;;;;57.47;2.60;;;;;;;;;;5055075;28;20487;-69
2023/03/10 04:49:03;;;;;;;58.37;2.60;;;;;;;;;;5054831;28;20483;-69
2023/03/10 04:51:30;;;;;;;57.90;2.40;;;;;;;;;;5055478;28;20444;-69
2023/03/10 04:53:59;;;;;;;57.40;2.57;;;;;;;;;;5054905;28;20448;-69
2023/03/10 04:56:26;;;;;;;57.33;2.37;;;;;;;;;;5055072;28;20468;-69
2023/03/10 04:58:53;;;;;;;58.30;3.00;;;;;;;;;;5054697;28;20990;-69
2023/03/10 05:01:20;;;;;;;58.07;2.80;;;;;;;;;;5054957;28;20501;-69
2023/03/10 05:03:49;;;;;;;61.40;3.03;;;;;;;;;;5054873;28;20458;-69
2023/03/10 05:06:17;;;;;;;57.30;2.40;;;;;;;;;;5054779;28;20468;-69
2023/03/10 05:08:45;;;;;;;57.17;2.43;;;;;;;;;;5054349;28;20511;-69
2023/03/10 05:11:12;;;;;;;57.40;2.30;;;;;;;;;;5054996;28;20454;-69
2023/03/10 05:13:39;;;;;;;61.30;2.90;;;;;;;;;;5054721;28;20470;-69
2023/03/10 05:16:12;;;;;;;61.30;2.60;;;;;;;;;;5054607;28;20475;-69
2023/03/10 05:18:39;;;;;;;58.57;2.33;;;;;;;;;;5054263;28;20450;-69
2023/03/10 05:21:07;;;;;;;58.30;2.93;;;;;;;;;;5054493;28;20444;-69
2023/03/10 05:23:34;;;;;;;58.27;2.70;;;;;;;;;;5054579;28;20448;-69
2023/03/10 05:26:03;;;;;;;57.90;2.63;;;;;;;;;;5054464;28;20999;-69
2023/03/10 05:28:30;;;;;;;59.80;2.70;;;;;;;;;;5054236;28;20894;-69
2023/03/10 05:30:58;;;;;;;58.67;2.90;;;;;;;;;;5054290;28;20449;-69
2023/03/10 05:33:25;;;;;;;57.90;2.50;;;;;;;;;;5054235;28;20452;-69
2023/03/10 05:35:52;;;;;;;58.70;2.83;;;;;;;;;;5054050;28;20969;-69
2023/03/10 05:38:20;;;;;;;57.60;2.80;;;;;;;;;;5054366;28;20444;-69
2023/03/10 05:40:48;;;;;;;57.87;2.70;;;;;;;;;;5053952;28;20448;-69
2023/03/10 05:43:15;;;;;;;59.90;3.30;;;;;;;;;;5054147;28;20448;-69
2023/03/10 05:45:42;;;;;;;59.00;3.33;;;;;;;;;;5053938;28;20484;-69
2023/03/10 05:48:09;;;;;;;58.10;2.83;;;;;;;;;;5053933;28;20494;-69
2023/03/10 05:50:36;;;;;;;60.03;3.07;;;;;;;;;;5053840;28;20869;-69
2023/03/10 05:53:03;;;;;;;58.77;2.93;;;;;;;;;;5052933;28;20463;-69
2023/03/10 05:55:31;;;;;;;58.33;3.07;;;;;;;;;;5053990;28;20455;-69
2023/03/10 05:57:58;;;;;;;59.90;2.67;;;;;;;;;;5053669;28;20940;-69
2023/03/10 06:00:26;;;;;;;59.83;3.03;;;;;;;;;;5053539;28;20451;-69
2023/03/10 06:02:53;;;;;;;59.70;2.70;;;;;;;;;;5053628;28;20444;-69
2023/03/10 06:05:20;;;;;;;57.67;2.50;;;;;;;;;;5053564;28;20441;-69
2023/03/10 06:07:47;;;;;;;59.40;3.10;;;;;;;;;;5053513;28;20494;-69
2023/03/10 06:10:14;;;;;;;60.30;3.13;;;;;;;;;;5053320;28;20497;-69
2023/03/10 06:12:43;;;;;;;62.87;2.80;;;;;;;;;;5053783;28;20452;-69
2023/03/10 06:15:10;;;;;;;58.63;2.80;;;;;;;;;;5053630;28;20824;-69
2023/03/10 06:17:37;;;;;;;57.50;2.30;;;;;;;;;;5053587;28;20479;-69
2023/03/10 06:20:05;;;;;;;58.63;2.50;;;;;;;;;;5053202;28;20458;-69
2023/03/10 06:22:32;;;;;;;60.47;2.93;;;;;;;;;;5053355;28;20952;-70
2023/03/10 06:24:59;;;;;;;57.67;2.57;;;;;;;;;;5053434;28;20458;-69
2023/03/10 06:27:26;;;;;;;60.43;3.23;;;;;;;;;;5053236;28;20468;-69
2023/03/10 06:29:54;;;;;;;58.67;2.50;;;;;;;;;;5052683;28;20444;-70
2023/03/10 06:32:21;;;;;;;57.37;2.37;;;;;;;;;;5053342;28;20451;-69
2023/03/10 06:34:49;;;;;;;57.87;2.80;;;;;;;;;;5053268;28;20491;-69
2023/03/10 06:37:16;;;;;;;58.27;2.40;;;;;;;;;;5053171;28;20470;-69
2023/03/10 06:39:43;;;;;;;58.97;2.77;;;;;;;;;;5052634;28;20832;-69
2023/03/10 06:42:10;;;;;;;57.40;2.23;;;;;;;;;;5052760;28;20449;-69
2023/03/10 06:44:37;;;;;;;58.67;2.73;;;;;;;;;;5053309;28;20444;-69
2023/03/10 06:47:06;;;;;;;57.27;2.37;;;;;;;;;;5052733;28;20533;-69
2023/03/10 06:49:34;;;;;;;57.50;2.60;;;;;;;;;;5052642;28;20490;-69
2023/03/10 06:52:01;;;;;;;58.20;2.63;;;;;;;;;;5052887;28;20448;-69
2023/03/10 06:54:28;;;;;;;59.80;3.30;;;;;;;;;;5052832;28;20448;-69
2023/03/10 06:56:55;;;;;;;58.17;2.73;;;;;;;;;;5052497;28;20464;-69
2023/03/10 06:59:22;;;;;;;57.20;2.47;;;;;;;;;;5052376;28;20459;-69
2023/03/10 07:01:49;;;;;;;58.00;2.73;;;;;;;;;;5052690;28;20448;-69
2023/03/10 07:04:18;;;;;;;58.57;2.60;;;;;;;;;;5052394;28;20450;-69
2023/03/10 07:06:45;;;;;;;58.10;2.70;;;;;;;;;;5052390;28;20464;-69
2023/03/10 07:09:13;;;;;;;57.40;2.60;;;;;;;;;;5051969;28;20484;-69
2023/03/10 07:11:40;;;;;;;58.73;2.50;;;;;;;;;;5052628;28;20444;-70
2023/03/10 07:14:07;;;;;;;61.80;3.13;;;;;;;;;;5052307;28;20976;-70
2023/03/10 07:16:34;;;;;;;57.40;2.50;;;;;;;;;;5052247;28;20487;-69
2023/03/10 07:19:01;;;;;;;58.10;2.80;;;;;;;;;;5052060;28;20447;-69
2023/03/10 07:21:30;;;;;;;57.07;2.50;;;;;;;;;;5052276;28;20455;-69
2023/03/10 07:23:58;;;;;;;57.60;2.60;;;;;;;;;;5052113;28;20506;-69
2023/03/10 07:26:25;;;;;;;59.80;2.83;;;;;;;;;;5052027;28;20475;-69
2023/03/10 07:28:53;;;;;;;57.60;2.50;;;;;;;;;;5052009;28;20490;-69
2023/03/10 07:31:20;;;;;;;57.80;2.70;;;;;;;;;;5049228;28;20463;-69
2023/03/10 07:33:48;;;;;;;57.60;2.50;;;;;;;;;;5051553;28;20466;-70
2023/03/10 07:36:16;;;;;;;57.40;2.50;;;;;;;;;;5051912;28;20468;-70
2023/03/10 07:38:44;;;;;;;56.90;2.70;;;;;;;;;;5051599;28;20448;-70
2023/03/10 07:41:13;;;;;;;57.47;2.53;;;;;;;;;;5052230;28;20444;-70
2023/03/10 07:43:40;;;;;;;57.40;2.77;;;;;;;;;;5051998;28;20459;-69
2023/03/10 07:46:09;;;;;;;57.80;2.70;;;;;;;;;;5049447;28;20475;-69
2023/03/10 07:48:36;;;;;;;59.07;2.70;;;;;;;;;;5051353;28;21024;-70
2023/03/10 07:51:03;;;;;;;58.27;2.63;;;;;;;;;;5051701;28;20452;-70
2023/03/10 07:53:32;;;;;;;57.50;2.60;;;;;;;;;;5051977;28;20543;-69
2023/03/10 07:56:00;;;;;;;60.47;2.70;;;;;;;;;;5051845;28;20479;-69
2023/03/10 07:58:27;;;;;;;58.73;2.90;;;;;;;;;;5051570;28;20452;-69
2023/03/10 08:00:55;;;;;;;58.67;2.67;;;;;;;;;;5051567;28;20454;-70
2023/03/10 08:03:22;;;;;;;57.57;2.70;;;;;;;;;;5051743;28;20448;-69
2023/03/10 08:05:49;;;;;;;58.00;2.60;;;;;;;;;;5051680;28;20472;-69
2023/03/10 08:08:17;;;;;;;59.37;2.70;;;;;;;;;;5051616;28;20487;-69
2023/03/10 08:10:44;;;;;;;57.37;2.53;;;;;;;;;;5051465;28;20453;-69
2023/03/10 08:13:12;;;;;;;59.70;3.00;;;;;;;;;;5051679;28;20448;-70
2023/03/10 08:15:39;;;;;;;58.63;3.20;;;;;;;;;;5053672;28;20474;-69
2023/03/10 08:18:07;;;;;;;57.50;2.50;;;;;;;;;;5055503;28;20546;-70
2023/03/10 08:20:35;;;;;;;57.37;2.63;;;;;;;;;;5055467;28;20538;-70
2023/03/10 08:23:02;;;;;;;59.77;3.23;;;;;;;;;;5055455;28;20444;-70
2023/03/10 08:25:29;;;;;;;60.40;3.27;;;;;;;;;;5055633;28;20456;-70
2023/03/10 08:27:56;;;;;;;58.40;2.90;;;;;;;;;;5055332;28;20448;-70
2023/03/10 08:30:25;;;;;;;58.60;3.50;;;;;;;;;;5055297;28;20871;-70
2023/03/10 08:32:52;;;;;;;61.10;3.30;;;;;;;;;;5055766;28;20900;-70
2023/03/10 08:35:19;;;;;;;62.43;3.83;;;;;;;;;;5055702;28;20459;-69
2023/03/10 08:37:47;;;;;;;59.27;3.00;;;;;;;;;;5055745;28;20448;-70
2023/03/10 08:40:15;;;;;;;58.10;2.70;;;;;;;;;;5055296;28;20952;-69
2023/03/10 08:42:42;;;;;;;58.10;3.00;;;;;;;;;;5055692;28;20450;-69
2023/03/10 08:45:09;;;;;;;58.87;3.00;;;;;;;;;;5055962;28;20943;-69
2023/03/10 08:47:37;;;;;;;57.70;2.80;;;;;;;;;;5055381;28;20480;-69
2023/03/10 08:50:05;;;;;;;58.67;2.70;;;;;;;;;;5055391;28;20487;-69
2023/03/10 08:52:33;;;;;;;57.90;2.77;;;;;;;;;;5055698;28;20476;-69
2023/03/10 08:55:00;;;;;;;60.67;2.87;;;;;;;;;;5055691;28;20446;-69
2023/03/10 08:57:27;;;;;;;58.07;2.90;;;;;;;;;;5055046;28;20463;-69
2023/03/10 08:59:54;;;;;;;59.80;3.07;;;;;;;;;;5054508;28;20443;-69
2023/03/10 09:02:21;;;;;;;58.30;2.90;;;;;;;;;;5054999;28;20452;-69
2023/03/10 09:04:49;;;;;;;58.23;2.83;;;;;;;;;;5054911;28;20458;-69
2023/03/10 09:07:16;;;;;;;57.70;2.57;;;;;;;;;;5054701;28;20844;-68
2023/03/10 09:09:44;;;;;;;59.50;2.80;;;10.60;1.00;;;;;;5054280;28;20476;-68
2023/03/10 09:12:11;;;;;;;58.33;2.80;;;;;;;;;;5054636;28;20534;-68
2023/03/10 09:14:38;;;;;;;57.80;2.60;;;;;;;;;;5054587;28;20531;-68
2023/03/10 09:17:06;;;;;;;58.27;2.50;;;;;;;;;;5054633;28;20558;-68
2023/03/10 09:19:33;;;;;;;60.27;2.90;;;;;;;;;;5054378;28;20447;-68
2023/03/10 09:22:01;;;;;;;57.73;2.40;;;;;;;;;;5054588;28;20882;-68
2023/03/10 09:24:28;;;;;;;57.23;2.50;;;;;;;;;;5054424;28;20448;-69
2023/03/10 09:26:56;;;;;;;57.80;2.80;;;;;;;;;;5053885;28;20841;-69
2023/03/10 09:29:23;;;;;;;58.37;2.90;;;;;;;;;;5054246;28;20480;-69
2023/03/10 09:31:50;;;;;;;59.20;2.87;;;;;;;;;;5054260;28;20975;-69
2023/03/10 09:34:17;;;;;;;60.23;2.60;;;;;;;;;;5054359;28;20451;-69
2023/03/10 09:36:44;;;;;;;59.10;2.90;;;;;;;;;;5054297;28;20474;-69
2023/03/10 09:39:13;;;;;;;58.70;2.77;;;;;;;;;;5054024;28;20444;-69
2023/03/10 09:41:56;;;;;;;60.40;3.00;;;;;;;;;;5054680;28;20812;-69
2023/03/10 09:44:26;;;;;;;57.60;2.50;;;;;;;;;;5054323;28;20455;-69
2023/03/10 09:47:00;;;;;;;59.57;3.03;;;;;;;;;;5054003;28;20847;-69
2023/03/10 09:49:33;;;;;;;58.87;3.17;;;;;;;;;;5053662;28;20574;-69
2023/03/10 09:52:03;;;;;;;58.07;2.70;;;;;;;;;;5053833;28;20820;-69
2023/03/10 09:54:39;;;;;;;58.07;2.80;;;;;;;;;;5054159;28;20463;-69
2023/03/10 09:57:11;;;;;;;58.00;2.80;;;;;;;;;;5054006;28;20464;-69
2023/03/10 09:59:40;;;;;;;59.10;3.10;;;;;;;;;;5053608;28;20445;-69
2023/03/10 10:02:16;;;;;;;58.80;3.20;;;11.70;1.00;;;;;;5053734;28;20502;-69
2023/03/10 10:04:43;;;;;;;59.00;2.87;;;;;;;;;;5053893;28;20540;-69
2023/03/10 10:07:14;;;;;;;59.40;3.10;;;;;;;;;;5053797;28;20495;-69
2023/03/10 10:09:44;;;;;;;62.53;3.00;;;;;;;;;;5053405;28;20480;-69
2023/03/10 10:12:12;;;;;;;58.67;2.83;;;;;;;;;;5053428;28;20463;-69
2023/03/10 10:14:39;;;;;;;59.90;3.13;;;;;;;;;;5053485;28;20506;-69
2023/03/10 10:17:09;;;;;;;58.57;2.90;;;;;;;;;;5053366;28;20825;-69
2023/03/10 10:19:38;;;;;;;59.93;2.90;;;;;;;;;;5053056;28;20448;-69
2023/03/10 10:22:09;;;;;;;57.50;2.90;;;;;;;;;;5053389;28;20952;-69
2023/03/10 10:24:36;;;;;;;58.27;2.83;;;11.40;1.00;;;;;;5053426;28;20826;-70
2023/03/10 10:27:04;;;;;;;60.27;2.90;;;11.30;1.00;;;;;;5053227;28;20468;-69
2023/03/10 10:29:35;;;;;;;58.67;3.00;;;11.30;1.00;;;;;;5052621;28;20480;-68
2023/03/10 10:32:04;;;;;;;59.97;2.83;;;;;;;;;;5053142;28;20973;-68
2023/03/10 10:34:31;;;;;;;61.37;2.47;;;11.10;1.00;;;;;;5053282;28;20448;-69
2023/03/10 10:36:59;;;;;;;59.80;3.00;;;11.00;1.00;;;;;;5053142;28;20475;-68
2023/03/10 10:39:27;;;;;;;60.17;2.60;;;11.00;1.00;;;;;;5052147;28;20948;-68
2023/03/10 10:41:55;;;;;;;59.07;2.73;;;;;;;;;;5052919;28;20444;-69
2023/03/10 10:44:23;;;;;;;57.90;2.90;;;;;;;;;;5053097;28;20527;-69
2023/03/10 10:46:54;;;;;;;58.57;3.10;;;;;;;;;;5052760;28;20484;-69
2023/03/10 10:49:23;;;;;;;58.57;3.00;;;;;;;;;;5052541;28;20856;-69
2023/03/10 10:51:57;;;;;;;58.00;3.10;;;;;;;;;;5052829;28;20448;-68
2023/03/10 10:54:27;;;;;;;58.97;3.20;;;;;;;;;;5052350;28;20458;-68
2023/03/10 10:56:55;;;;;;;58.77;2.97;;;11.10;1.00;;;;;;5052669;28;20476;-69
2023/03/10 10:59:27;;;;;;;63.43;3.10;;;11.10;1.00;;;;;;5052526;28;20449;-69
2023/03/10 11:01:55;;;;;;;57.97;2.87;;;;;;;;;;5052743;28;20444;-69
2023/03/10 11:04:23;;;;;;;59.00;2.80;;;11.10;1.00;;;;;;5052637;28;20540;-69
2023/03/10 11:06:51;;;;;;;57.90;2.57;;;11.20;1.00;;;;;;5052578;28;20478;-69
2023/03/10 11:09:19;;;;;;;58.07;2.87;;;;;;;;;;5052044;28;20494;-69
2023/03/10 11:11:53;;;;;;;57.83;2.57;;;;;;;;;;5052713;28;20447;-69
2023/03/10 11:14:38;;;;;;;59.10;2.90;;;;;;;;;;5052604;28;20506;-69
2023/03/10 11:17:14;;;;;;;59.40;2.80;;;11.30;1.00;;;;;;5051998;28;20476;-69
2023/03/10 11:19:49;;;;;;;58.67;3.23;;;;;;;;;;5052023;28;20444;-69
2023/03/10 11:22:22;;;;;;;58.27;2.93;;;;;;;;;;5052596;28;20452;-69
2023/03/10 11:24:51;;;;;;;60.00;2.90;;;;;;;;;;5052263;28;20440;-68
2023/03/10 11:27:20;;;;;;;59.90;3.83;;;;;;;;;;5052534;28;20968;-68
2023/03/10 11:29:53;;;;;;;59.30;4.20;;;;;;;;;;5051518;28;20507;-68
2023/03/10 11:32:26;;;;;;;57.57;2.60;;;;;;;;;;5052255;28;20825;-68
2023/03/10 11:34:53;;;;;;;58.07;3.20;;;;;;;;;;5052171;28;20502;-69
2023/03/10 11:37:28;;;;;;;58.67;2.83;;;;;;;;;;5052083;28;20468;-69
2023/03/10 11:40:06;;;;;;;58.83;2.83;;;;;;;;;;5051738;28;20979;-69
2023/03/10 11:42:36;;;;;;;57.73;2.53;;;;;;;;;;5052082;28;20459;-69
2023/03/10 11:45:05;;;;;;;57.87;2.33;;;;;;;;;;5052079;28;20449;-69
2023/03/10 11:47:50;;;;;;;57.60;2.47;;;11.70;1.00;;;;;;5051630;28;20861;-69
2023/03/10 11:50:21;;;;;;;58.37;2.70;;;;;;;;;;5051530;28;20490;-69
2023/03/10 11:52:49;;;;;;;59.27;2.90;;;;;;;;;;5051750;28;20452;-69
2023/03/10 11:55:19;;;;;;;58.07;2.73;;;;;;;;;;5051861;28;20444;-69
2023/03/10 11:57:50;;;;;;;57.97;2.67;;;11.70;1.00;;;;;;5051835;28;20444;-70
2023/03/10 12:00:25;;;;;;;58.13;2.80;;;11.80;1.00;;;;;;5051490;28;20459;-69
2023/03/10 12:03:02;;;;;;;57.60;2.83;;;;;;;;;;5051651;28;20452;-69
2023/03/10 12:05:39;;;;;;;58.50;2.63;;;11.40;1.00;;;;;;5051886;28;20440;-69
2023/03/10 12:08:07;;;;;;;57.90;2.70;;;;;;;;;;5051711;28;20448;-69
2023/03/10 12:10:35;;;;;;;57.70;2.77;;;;;;;;;;5051182;28;20484;-69
2023/03/10 12:13:03;;;;;;;60.23;3.33;;;;;;;;;;5051635;28;20444;-69
2023/03/10 12:15:35;;;;;;;60.10;2.90;;;;;;;;;;5051463;28;20590;-69
2023/03/10 12:18:04;;;;;;;58.27;2.90;;;;;;;;;;5051761;28;20456;-69
2023/03/10 12:20:32;;;;;;;64.47;2.63;;;;;;;;;;5051148;28;20944;-69
2023/03/10 12:23:01;;;;;;;57.93;2.70;;;;;;;;;;5051554;28;20463;-69
2023/03/10 12:25:43;;;;;;;58.30;2.90;;;;;;;;;;5051723;28;20968;-69
2023/03/10 12:28:19;;;;;;;57.77;2.50;;;;;;;;;;5051233;28;20539;-69
2023/03/10 12:30:48;;;;;;;58.50;2.77;;;11.30;1.00;;;;;;5051175;28;20486;-69
2023/03/10 12:33:36;;;;;;;57.90;3.10;;;;;;;;;;5051008;28;20832;-70
2023/03/10 12:36:05;;;;;;;57.27;2.30;;;;;;;;;;5051248;28;20846;-70
2023/03/10 12:38:47;;;;;;;57.23;2.50;;;;;;;;;;5050141;28;20452;-70
2023/03/10 12:41:34;;;;;;;60.80;2.60;;;;;;;;;;5047425;28;20448;-69
2023/03/10 12:44:02;;;;;;;57.50;2.60;;;;;;;;;;5051209;28;20455;-70
2023/03/10 12:46:40;;;;;;;58.53;2.47;;;11.60;1.00;;;;;;5050927;28;20476;-69
2023/03/10 12:49:13;;;;;;;57.37;2.47;;;;;;;;;;5050716;28;20443;-69
2023/03/10 12:51:46;;;;;;;57.30;2.10;;;11.40;1.00;;;;;;5051344;28;20488;-69
2023/03/10 12:54:32;;;;;;;57.60;2.40;;;;;;;;;;5051294;28;20458;-69
2023/03/10 12:57:02;;;;;;;57.67;2.20;;;;;;;;;;5051042;28;20468;-68
2023/03/10 12:59:35;;;;;;;57.30;2.30;;;11.30;1.00;;;;;;5050700;28;20445;-69
2023/03/10 13:02:03;;;;;;;56.97;2.10;;;11.60;1.00;;;;;;5053807;28;20464;-69
2023/03/10 13:04:31;;;;;;;57.40;2.40;;;;;;;;;;5055015;28;20448;-69
2023/03/10 13:07:02;;;;;;;57.17;2.40;;;11.70;1.00;;;;;;5054808;28;20467;-69
2023/03/10 13:09:31;;;;;;;57.70;2.30;;;11.90;1.00;;;;;;5054553;28;20510;-68
2023/03/10 13:12:00;;;;;;;57.97;2.37;;;;;;;;;;5054695;28;20447;-69
2023/03/10 13:14:34;;;;;;;57.17;2.30;;;;;;;;;;5055029;28;20444;-69
2023/03/10 13:17:02;;;;;;;57.50;2.23;;;;;;;;;;5054839;28;20464;-69
2023/03/10 13:19:30;;;;;;;57.50;2.30;;;11.70;1.00;;;;;;5054449;28;20447;-68
2023/03/10 13:21:58;;;;;;;57.40;2.47;;;;;;;;;;5054498;28;20444;-69
2023/03/10 13:24:28;;;;;;;57.40;2.47;;;11.50;1.00;;;;;;5054425;28;20472;-69
2023/03/10 13:27:05;;;;;;;57.30;2.20;;;11.60;1.00;;;;;;5054330;28;20474;-69
2023/03/10 13:29:33;;;;;;;57.40;2.20;;;;;;;;;;5054183;28;20801;-69
2023/03/10 13:31:59;;;;;;;57.17;2.10;;;11.40;1.00;;;;;;5054405;28;20488;-69
2023/03/10 13:34:28;;;;;;;57.57;2.23;;;11.20;1.00;;;;;;5054405;28;20444;-69
2023/03/10 13:37:03;;;;;;;57.20;2.00;;;11.00;1.00;;;;;;5054123;28;20988;-69
2023/03/10 13:39:31;;;;;;;57.87;2.37;;;;;;;;;;5053831;28;20451;-69
2023/03/10 13:42:00;;;;;;;57.63;2.23;;;10.80;1.00;;;;;;5054444;28;20445;-70
2023/03/10 13:44:29;;;;;;;57.77;2.83;;;10.70;1.00;;;;;;5054178;28;20531;-69
2023/03/10 13:46:59;;;;;;;57.60;2.60;;;10.70;1.00;;;;;;5054164;28;20491;-69
2023/03/10 13:49:28;;;;;;;58.53;2.60;;;10.50;1.00;;;;;;5053574;28;20451;-69
2023/03/10 13:51:57;;;;;;;57.87;2.37;;;10.30;1.00;;;;;;5053862;28;20484;-69
2023/03/10 13:54:26;;;;;;;58.60;3.00;;;;;;;;;;5054102;28;20470;-69
2023/03/10 13:56:56;;;;;;;58.77;2.90;;;9.60;1.00;;;;;;5053867;28;20475;-68
2023/03/10 13:59:24;;;;;;;57.87;2.67;;;;;;;;;;5053416;28;20463;-68
2023/03/10 14:01:54;;;;;;;57.60;2.80;;;;;;;;;;5053772;28;20444;-68
2023/03/10 14:04:41;;;;;;;58.97;3.40;;;9.60;1.00;;;;;;5053826;28;20445;-68
2023/03/10 14:07:09;;;;;;;58.43;2.90;;;9.60;1.00;;;;;;5053766;28;20459;-68
2023/03/10 14:09:36;;;;;;;57.40;2.70;;;9.70;1.00;;;;;;5053323;28;20444;-68
2023/03/10 14:12:05;;;;;;;57.17;2.53;;;9.70;1.00;;;;;;5053008;28;20484;-68
2023/03/10 14:14:33;;;;;;;57.50;2.67;;;;;;;;;;5052934;28;20459;-68
2023/03/10 14:17:01;;;;;;;57.17;2.57;;;;;;;;;;5053465;28;20477;-68
2023/03/10 14:19:47;;;;;;;57.60;2.60;;;;;;;;;;5053146;28;20957;-68
2023/03/10 14:22:22;;;;;;;57.17;2.40;;;;;;;;;;5053501;28;20450;-68
2023/03/10 14:24:49;;;;;;;57.60;2.40;;;;;;;;;;5053248;28;20956;-68
2023/03/10 14:27:18;;;;;;;57.80;2.57;;;;;;;;;;5053246;28;20468;-68